Time;durP1;ratioP1;P1;durP2;ratioP2;P2;SDS_P1;SDS_P2;PMS_P1;PMS_P2;Temp;Humidity;BMP_temperature;BMP_pressure;BME280_temperature;BME280_humidity;BME280_pressure;Samples;Min_cycle;Max_cycle;Signal;HPM_P1;HPM_P2
2023/11/30 00:00:08;;;;;;;1.95;1.55;;;2.90;70.00;;;-1.63;100.00;94194.97;4975228;28;20057;-57
2023/11/30 00:02:34;;;;;;;2.38;1.55;;;3.00;70.40;;;-1.56;100.00;94181.00;4969631;28;20073;-53
2023/11/30 00:05:00;;;;;;;3.17;1.83;;;3.20;69.40;;;-1.50;100.00;94180.13;4968229;28;20048;-56
2023/11/30 00:07:26;;;;;;;2.30;1.77;;;3.30;69.10;;;-1.46;100.00;94171.59;4963893;28;20090;-56
2023/11/30 00:09:52;;;;;;;2.25;1.83;;;3.50;68.90;;;-1.43;100.00;94162.53;4959564;28;20022;-54
2023/11/30 00:12:17;;;;;;;4.18;1.88;;;3.60;68.80;;;-1.38;100.00;94169.69;4970342;28;20401;-52
2023/11/30 00:14:43;;;;;;;1.95;1.63;;;3.60;68.50;;;-1.36;100.00;94158.00;4973703;28;20026;-52
2023/11/30 00:17:09;;;;;;;2.00;1.80;;;3.70;68.40;;;-1.32;100.00;94160.94;4967035;28;20043;-56
2023/11/30 00:19:35;;;;;;;2.90;2.10;;;3.80;68.30;;;-1.27;100.00;94164.47;4981613;28;20025;-57
2023/11/30 00:22:02;;;;;;;1.95;1.40;;;3.80;68.10;;;-1.22;100.00;94158.59;4988525;28;20092;-57
2023/11/30 00:24:28;;;;;;;2.13;1.70;;;3.90;68.00;;;-1.16;100.00;94149.81;4965254;28;20022;-58
2023/11/30 00:26:54;;;;;;;2.50;1.60;;;4.00;67.90;;;-1.09;100.00;94160.19;4969716;28;20026;-57
2023/11/30 00:29:20;;;;;;;2.20;1.50;;;4.00;67.80;;;-1.12;100.00;94144.97;4968491;28;20022;-58
2023/11/30 00:31:45;;;;;;;2.13;1.90;;;4.10;67.70;;;-1.05;100.00;94133.34;4969907;28;20030;-58
2023/11/30 00:34:11;;;;;;;1.88;1.55;;;4.20;67.60;;;-0.99;100.00;94134.28;4972515;28;20034;-56
2023/11/30 00:36:37;;;;;;;1.90;1.50;;;4.20;67.50;;;-1.00;100.00;94127.47;4966856;28;20080;-58
2023/11/30 00:39:03;;;;;;;1.90;1.10;;;4.20;67.40;;;-0.93;100.00;94123.69;4982555;28;20031;-54
2023/11/30 00:41:29;;;;;;;2.55;1.88;;;4.30;67.30;;;-0.92;100.00;94134.94;4964809;28;20076;-56
2023/11/30 00:43:55;;;;;;;1.50;1.40;;;4.30;67.20;;;-0.86;100.00;94134.03;4961904;28;20026;-57
2023/11/30 00:46:22;;;;;;;1.92;1.63;;;4.30;67.10;;;-0.82;100.00;94126.53;4945126;28;20081;-53
2023/11/30 00:48:48;;;;;;;2.83;1.65;;;4.30;67.00;;;-0.84;100.00;94128.59;4960739;28;20038;-52
2023/11/30 00:51:13;;;;;;;1.92;1.42;;;4.40;66.90;;;-0.84;100.00;94124.16;4980407;28;20556;-52
2023/11/30 00:53:40;;;;;;;1.63;1.40;;;4.40;66.80;;;-0.82;100.00;94116.84;4956497;28;20025;-53
2023/11/30 00:56:10;;;;;;;1.58;1.40;;;4.40;66.70;;;-0.81;100.00;94104.59;4953575;28;20026;-49
2023/11/30 00:58:36;;;;;;;2.35;1.50;;;4.40;66.60;;;-0.81;100.00;94096.75;4963263;28;20037;-54
2023/11/30 01:01:02;;;;;;;4.55;1.50;;;4.40;66.60;;;-0.82;100.00;94110.84;4952226;28;20034;-54
2023/11/30 01:03:28;;;;;;;1.90;1.60;;;4.40;66.40;;;-0.81;98.64;94107.22;4960822;28;20053;-56
2023/11/30 01:05:54;;;;;;;2.13;1.58;;;4.40;66.40;;;-0.81;97.13;94097.56;4961523;28;20054;-53
2023/11/30 01:08:19;;;;;;;1.85;1.42;;;4.50;66.30;;;-0.76;97.45;94092.41;4956481;28;20031;-55
2023/11/30 01:10:45;;;;;;;2.17;1.55;;;4.50;66.30;;;-0.74;98.66;94102.66;4960940;28;20026;-57
2023/11/30 01:13:12;;;;;;;2.60;1.55;;;4.50;66.30;;;-0.74;98.89;94098.22;4964947;28;20041;-55
2023/11/30 01:15:38;;;;;;;1.92;1.42;;;4.50;66.20;;;-0.74;99.09;94103.44;4961038;28;20032;-53
2023/11/30 01:18:04;;;;;;;1.75;1.20;;;4.50;66.20;;;-0.83;94.36;94099.59;4983215;28;20034;-56
2023/11/30 01:20:33;;;;;;;1.65;1.17;;;4.50;66.10;;;-0.71;95.60;94096.97;4953969;28;20095;-55
2023/11/30 01:22:59;;;;;;;1.60;1.27;;;4.50;66.20;;;-0.71;96.82;94092.53;4959716;28;20061;-55
2023/11/30 01:25:25;;;;;;;1.30;1.20;;;4.50;66.00;;;-0.65;97.22;94100.47;4956443;28;20443;-53
2023/11/30 01:27:52;;;;;;;2.22;1.50;;;4.60;65.90;;;-0.62;98.17;94097.41;4963968;28;20026;-56
2023/11/30 01:30:19;;;;;;;2.10;1.20;;;4.60;65.90;;;-0.63;98.37;94096.59;4953872;28;20109;-56
2023/11/30 01:32:45;;;;;;;2.30;1.30;;;4.60;65.80;;;-0.61;98.00;94097.16;4980261;28;20026;-58
2023/11/30 01:35:10;;;;;;;1.80;1.38;;;4.60;65.70;;;-0.60;98.47;94100.56;4957050;28;20107;-54
2023/11/30 01:37:38;;;;;;;1.10;1.00;;;4.60;65.70;;;-0.57;98.52;94103.50;4962343;28;20030;-53
2023/11/30 01:40:10;;;;;;;2.38;1.30;;;4.70;65.70;;;-0.56;99.06;94107.75;4950416;28;20118;-53
2023/11/30 01:42:37;;;;;;;1.42;1.20;;;4.70;65.60;;;-0.55;99.11;94105.91;4958775;28;20394;-51
2023/11/30 01:45:04;;;;;;;4.15;1.30;;;4.70;65.60;;;-0.54;99.08;94102.25;4976670;28;20108;-51
2023/11/30 01:47:33;;;;;;;2.40;1.17;;;4.70;65.50;;;-0.53;99.51;94096.81;4953701;28;20076;-52
2023/11/30 01:50:01;;;;;;;1.80;1.58;;;4.70;65.50;;;-0.53;99.54;94106.47;4960496;28;20613;-54
2023/11/30 01:52:30;;;;;;;2.10;1.30;;;4.70;65.60;;;-0.52;99.75;94102.84;4958606;28;20048;-56
2023/11/30 01:55:01;;;;;;;1.55;1.35;;;4.70;65.60;;;-0.52;99.33;94102.84;4948991;28;20023;-55
2023/11/30 01:57:29;;;;;;;2.63;1.63;;;4.80;65.60;;;-0.52;99.25;94103.63;4978788;28;20041;-54
2023/11/30 01:59:56;;;;;;;2.30;1.40;;;4.80;65.60;;;-0.54;99.73;94091.78;4960603;28;20571;-56
2023/11/30 02:02:23;;;;;;;3.10;1.13;;;4.80;65.50;;;-0.52;99.60;94087.94;4981474;28;20049;-56
2023/11/30 02:04:53;;;;;;;1.63;1.15;;;4.80;65.40;;;-0.52;99.13;94100.22;4951339;28;20087;-52
2023/11/30 02:07:20;;;;;;;1.35;1.23;;;4.80;65.40;;;-0.51;99.12;94093.94;4954659;28;20171;-56
2023/11/30 02:09:46;;;;;;;1.60;1.30;;;4.80;65.30;;;-0.51;99.17;94097.34;4964507;28;20055;-52
2023/11/30 02:12:12;;;;;;;2.00;1.42;;;4.90;65.30;;;-0.49;99.08;94095.31;4966661;28;20030;-54
2023/11/30 02:14:38;;;;;;;2.30;1.50;;;4.90;65.30;;;-0.48;99.86;94089.03;4956999;28;20038;-52
2023/11/30 02:17:04;;;;;;;1.45;1.20;;;4.90;65.20;;;-0.48;100.00;94081.19;4966224;28;20030;-55
2023/11/30 02:19:30;;;;;;;1.33;1.10;;;4.90;65.20;;;-0.46;100.00;94083.59;4964849;28;20489;-55
2023/11/30 02:21:56;;;;;;;1.70;1.50;;;4.90;65.20;;;-0.46;99.88;94088.84;4959066;28;20062;-55
2023/11/30 02:24:22;;;;;;;1.92;0.93;;;4.90;65.20;;;-0.48;99.99;94090.88;4963210;28;20416;-58
2023/11/30 02:26:48;;;;;;;4.88;1.30;;;4.90;65.20;;;-0.45;99.99;94087.78;4960890;28;20080;-57
2023/11/30 02:29:15;;;;;;;2.13;1.30;;;4.90;65.20;;;-0.44;99.54;94084.13;4958641;28;20074;-57
2023/11/30 02:31:42;;;;;;;2.88;1.30;;;5.00;65.20;;;-0.51;97.81;94083.50;4967455;28;20434;-58
2023/11/30 02:34:08;;;;;;;2.63;1.30;;;4.90;65.00;;;-0.46;98.47;94083.59;4976909;28;20050;-57
2023/11/30 02:36:34;;;;;;;1.73;1.30;;;5.00;65.00;;;-0.44;98.12;94092.00;4957725;28;20396;-56
2023/11/30 02:39:00;;;;;;;1.73;1.30;;;5.00;65.00;;;-0.42;99.54;94084.72;4959509;28;20029;-58
2023/11/30 02:41:26;;;;;;;1.17;1.08;;;5.00;65.00;;;-0.39;100.00;94084.25;4960880;28;20030;-51
2023/11/30 02:43:52;;;;;;;1.73;1.50;;;5.00;65.00;;;-0.36;100.00;94099.47;4956626;28;20031;-56
2023/11/30 02:46:18;;;;;;;1.63;0.90;;;5.00;65.00;;;-0.36;100.00;94103.94;4961626;28;20037;-57
2023/11/30 02:48:43;;;;;;;3.83;1.25;;;5.00;65.00;;;-0.35;100.00;94106.28;4950732;28;20458;-57
2023/11/30 02:51:11;;;;;;;5.90;1.27;;;5.00;65.00;;;-0.36;100.00;94099.47;4955989;28;20052;-58
2023/11/30 02:53:37;;;;;;;2.97;1.20;;;5.00;65.00;;;-0.33;100.00;94098.22;4961336;28;20480;-58
2023/11/30 02:56:03;;;;;;;1.27;1.13;;;5.00;65.00;;;-0.38;98.71;94093.69;4976966;28;20026;-58
2023/11/30 02:58:29;;;;;;;1.23;1.10;;;5.00;65.00;;;-0.40;99.36;94063.56;4949924;28;20026;-55
2023/11/30 03:00:55;;;;;;;1.67;1.20;;;5.00;64.90;;;-0.36;99.44;94081.16;4957302;28;20018;-56
2023/11/30 03:03:22;;;;;;;1.83;1.25;;;5.00;64.90;;;-0.36;99.46;94073.31;4975987;28;20473;-58
2023/11/30 03:05:49;;;;;;;2.22;1.30;;;5.00;64.90;;;-0.32;99.04;94073.66;4957421;28;20031;-58
2023/11/30 03:08:15;;;;;;;2.42;1.27;;;5.00;64.90;;;-0.39;97.70;94068.56;4957024;28;20037;-57
2023/11/30 03:10:41;;;;;;;1.50;1.30;;;5.00;64.90;;;-0.33;98.08;94078.09;4953933;28;20459;-56
2023/11/30 03:13:07;;;;;;;1.45;1.20;;;5.00;64.80;;;-0.30;98.86;94084.69;4953693;28;20114;-53
2023/11/30 03:15:33;;;;;;;3.95;1.20;;;5.00;64.70;;;-0.29;99.24;94070.56;4982529;28;20117;-56
2023/11/30 03:17:59;;;;;;;1.40;1.13;;;5.00;64.80;;;-0.28;98.76;94061.69;4952582;28;20065;-57
2023/11/30 03:20:24;;;;;;;1.40;1.30;;;5.00;64.70;;;-0.28;97.34;94069.56;4965001;28;20069;-54
2023/11/30 03:22:50;;;;;;;1.42;1.27;;;5.10;64.70;;;-0.26;97.20;94065.66;4947097;28;20031;-54
2023/11/30 03:25:16;;;;;;;1.20;1.10;;;5.10;64.70;;;-0.25;97.00;94066.47;4959933;28;20076;-54
2023/11/30 03:27:42;;;;;;;3.08;1.15;;;5.10;64.70;;;-0.27;99.41;94068.50;4954761;28;20120;-54
2023/11/30 03:30:09;;;;;;;1.95;1.40;;;5.10;64.70;;;-0.37;100.00;94069.13;4962563;28;20025;-58
2023/11/30 03:32:35;;;;;;;4.50;1.30;;;5.00;64.60;;;-0.36;100.00;94075.94;4953695;28;20054;-52
2023/11/30 03:35:01;;;;;;;1.77;1.38;;;5.10;64.70;;;-0.30;100.00;94085.47;4966876;28;20045;-57
2023/11/30 03:37:26;;;;;;;1.80;1.42;;;5.00;64.70;;;-0.28;100.00;94093.91;4949721;28;20282;-56
2023/11/30 03:39:52;;;;;;;1.77;1.27;;;5.00;64.70;;;-0.20;99.99;94084.06;4956478;28;20425;-54
2023/11/30 03:42:18;;;;;;;1.17;1.08;;;5.00;64.70;;;-0.19;100.00;94083.81;4959808;28;20031;-56
2023/11/30 03:44:44;;;;;;;1.83;1.30;;;5.10;64.80;;;-0.20;100.00;94081.47;4957518;28;20034;-58
2023/11/30 03:47:10;;;;;;;1.70;1.20;;;5.10;64.80;;;-0.18;100.00;94082.81;4947621;28;20038;-54
2023/11/30 03:49:36;;;;;;;2.65;1.80;;;5.10;64.80;;;-0.15;100.00;94084.97;4953418;28;20400;-56
2023/11/30 03:52:02;;;;;;;1.58;1.25;;;5.10;64.80;;;-0.13;100.00;94080.28;4955229;28;20038;-54
2023/11/30 03:54:28;;;;;;;3.05;1.58;;;5.10;64.80;;;-0.13;100.00;94087.34;4979948;28;20034;-56
2023/11/30 03:56:54;;;;;;;5.57;1.60;;;5.20;64.80;;;-0.14;100.00;94081.31;4963546;28;20050;-56
2023/11/30 03:59:19;;;;;;;1.48;1.38;;;5.20;64.80;;;-0.12;100.00;94070.63;4958814;28;20388;-54
2023/11/30 04:01:45;;;;;;;1.90;1.27;;;5.20;64.80;;;-0.13;99.63;94072.41;4956656;28;20601;-51
2023/11/30 04:04:11;;;;;;;1.30;1.20;;;5.20;64.70;;;-0.13;100.00;94066.41;4953560;28;20033;-51
2023/11/30 04:06:37;;;;;;;2.15;1.52;;;5.20;64.60;;;-0.17;100.00;94045.13;4952597;28;20105;-52
2023/11/30 04:09:03;;;;;;;2.17;1.45;;;5.20;64.60;;;-0.21;100.00;94045.84;4959272;28;20030;-53
2023/11/30 04:11:29;;;;;;;2.85;1.70;;;5.20;64.60;;;-0.31;100.00;94043.84;4947479;28;20033;-54
2023/11/30 04:14:05;;;;;;;2.22;2.00;;;5.10;64.50;;;-0.43;100.00;94030.03;4957679;28;20022;-55
2023/11/30 04:16:32;;;;;;;3.30;2.40;;;5.10;64.60;;;-0.52;100.00;94016.50;4977153;28;20455;-53
2023/11/30 04:18:58;;;;;;;3.60;2.50;;;5.00;64.60;;;-0.52;100.00;94012.06;4963632;28;20060;-52
2023/11/30 04:21:24;;;;;;;3.60;2.35;;;4.90;64.70;;;-0.55;100.00;93998.66;4958617;28;20058;-57
2023/11/30 04:23:50;;;;;;;5.75;2.78;;;4.90;64.80;;;-0.60;100.00;93993.34;4950961;28;20022;-54
2023/11/30 04:26:16;;;;;;;4.32;2.80;;;4.80;64.90;;;-0.64;100.00;93994.84;4957253;28;20038;-54
2023/11/30 04:28:42;;;;;;;3.95;2.78;;;4.80;65.00;;;-0.66;100.00;93986.41;4968977;28;20068;-55
2023/11/30 04:31:09;;;;;;;6.10;3.30;;;4.70;65.20;;;-0.66;100.00;93995.06;4952839;28;20351;-54
2023/11/30 04:33:35;;;;;;;4.55;3.15;;;4.70;65.40;;;-0.64;100.00;93994.84;4964105;28;20019;-54
2023/11/30 04:36:01;;;;;;;19.10;3.85;;;4.60;65.50;;;-0.64;100.00;93982.53;4964531;28;20524;-54
2023/11/30 04:38:26;;;;;;;5.78;3.38;;;4.60;65.50;;;-0.65;100.00;93978.34;4964889;28;20104;-52
2023/11/30 04:40:52;;;;;;;6.72;3.35;;;4.60;65.70;;;-0.64;100.00;93974.69;4980138;28;20473;-54
2023/11/30 04:43:18;;;;;;;4.88;3.38;;;4.60;65.80;;;-0.65;100.00;93980.19;4962155;28;20479;-54
2023/11/30 04:45:44;;;;;;;4.50;3.10;;;4.60;65.90;;;-0.62;100.00;93974.47;4951202;28;20509;-54
2023/11/30 04:48:10;;;;;;;6.00;3.33;;;4.60;66.00;;;-0.60;100.00;93978.44;4958737;28;20046;-51
2023/11/30 04:50:36;;;;;;;15.10;3.33;;;4.60;66.10;;;-0.59;100.00;93969.56;4966085;28;20029;-52
2023/11/30 04:53:02;;;;;;;4.43;3.55;;;4.60;66.20;;;-0.57;100.00;93966.72;4960793;28;20473;-53
2023/11/30 04:55:28;;;;;;;5.18;3.45;;;4.70;66.40;;;-0.57;100.00;93959.66;4977379;28;20125;-52
2023/11/30 04:57:54;;;;;;;5.13;3.15;;;4.70;66.40;;;-0.65;100.00;93954.81;4955265;28;20164;-56
2023/11/30 05:00:20;;;;;;;4.30;3.17;;;4.60;66.30;;;-0.62;100.00;93953.56;4958517;28;20102;-56
2023/11/30 05:02:55;;;;;;;4.32;3.05;;;4.60;66.40;;;-0.57;100.00;93956.25;4969044;28;20030;-55
2023/11/30 05:05:22;;;;;;;4.13;2.78;;;4.70;66.50;;;-0.57;100.00;93945.78;4959401;28;20049;-54
2023/11/30 05:07:49;;;;;;;4.95;3.20;;;4.70;66.50;;;-0.60;100.00;93951.47;4963955;28;20440;-55
2023/11/30 05:10:15;;;;;;;8.65;3.42;;;4.70;66.60;;;-0.59;100.00;93960.94;4951941;28;20019;-54
2023/11/30 05:12:41;;;;;;;6.22;3.80;;;4.70;66.60;;;-0.57;100.00;93951.81;4960038;28;20027;-57
2023/11/30 05:15:07;;;;;;;6.35;3.30;;;4.70;66.70;;;-0.58;100.00;93937.16;4962119;28;20025;-55
2023/11/30 05:17:33;;;;;;;5.10;3.28;;;4.70;66.70;;;-0.59;100.00;93929.56;4960393;28;20484;-57
2023/11/30 05:20:01;;;;;;;4.60;3.50;;;4.80;66.80;;;-0.57;100.00;93935.31;4959532;28;20030;-54
2023/11/30 05:22:27;;;;;;;5.20;3.83;;;4.80;66.70;;;-0.56;100.00;93927.25;4948744;28;20026;-55
2023/11/30 05:24:53;;;;;;;5.15;3.50;;;4.80;66.70;;;-0.53;100.00;93920.75;4955658;28;20362;-54
2023/11/30 05:27:19;;;;;;;5.32;3.33;;;4.80;66.80;;;-0.56;100.00;93908.16;4960308;28;20022;-53
2023/11/30 05:29:45;;;;;;;4.80;3.60;;;4.90;66.80;;;-0.50;100.00;93907.22;4957285;28;20033;-57
2023/11/30 05:32:10;;;;;;;4.53;3.03;;;4.90;66.80;;;-0.48;100.00;93900.69;4952575;28;20504;-55
2023/11/30 05:34:36;;;;;;;6.65;3.42;;;4.90;66.80;;;-0.46;100.00;93895.25;4959906;28;20081;-56
2023/11/30 05:37:03;;;;;;;3.20;2.63;;;4.90;66.90;;;-0.45;100.00;93898.66;4964786;28;20495;-58
2023/11/30 05:39:30;;;;;;;4.57;3.00;;;4.90;66.80;;;-0.45;100.00;93894.19;4961459;28;20106;-53
2023/11/30 05:41:58;;;;;;;9.73;3.20;;;4.90;67.60;;;-0.44;100.00;93900.22;4960155;28;20046;-53
2023/11/30 05:44:24;;;;;;;8.15;3.92;;;4.90;66.80;;;-0.47;100.00;93896.25;4955381;28;20022;-53
2023/11/30 05:46:50;;;;;;;3.45;2.90;;;4.90;66.90;;;-0.53;100.00;93890.16;4949846;28;20085;-54
2023/11/30 05:49:16;;;;;;;6.80;3.50;;;4.80;66.80;;;-0.55;100.00;93891.44;4966293;28;20038;-48
2023/11/30 05:51:42;;;;;;;5.07;3.55;;;4.90;66.90;;;-0.56;100.00;93888.03;4957289;28;20393;-48
2023/11/30 05:54:08;;;;;;;33.28;4.88;;;4.80;66.90;;;-0.55;100.00;93884.38;4981406;28;20026;-50
2023/11/30 05:56:35;;;;;;;5.32;3.78;;;4.80;67.00;;;-0.55;100.00;93883.56;4955102;28;20406;-47
2023/11/30 05:59:02;;;;;;;7.15;3.90;;;4.80;67.10;;;-0.56;100.00;93882.00;4950215;28;20022;-47
2023/11/30 06:01:28;;;;;;;5.60;3.92;;;4.70;67.10;;;-0.54;100.00;93878.09;4956891;28;20030;-48
2023/11/30 06:03:55;;;;;;;5.00;3.78;;;4.80;67.20;;;-0.57;100.00;93878.56;4957441;28;20064;-50
2023/11/30 06:06:21;;;;;;;6.18;4.18;;;4.70;67.20;;;-0.56;100.00;93874.16;4974630;28;20038;-47
2023/11/30 06:08:47;;;;;;;6.35;3.97;;;4.70;67.20;;;-0.58;100.00;93860.50;4957091;28;20030;-48
2023/11/30 06:11:15;;;;;;;5.55;4.00;;;4.70;67.30;;;-0.64;100.00;93866.69;4948122;28;20034;-48
2023/11/30 06:13:41;;;;;;;4.15;3.35;;;4.70;67.30;;;-0.68;100.00;93862.97;4952494;28;20026;-49
2023/11/30 06:16:08;;;;;;;6.70;4.10;;;4.70;67.30;;;-0.67;100.00;93854.09;4958245;28;20471;-47
2023/11/30 06:18:34;;;;;;;6.30;3.90;;;4.60;67.20;;;-0.67;100.00;93854.09;4958780;28;20030;-46
2023/11/30 06:21:00;;;;;;;5.43;3.85;;;4.70;67.40;;;-0.72;100.00;93847.75;4957220;28;20050;-50
2023/11/30 06:23:26;;;;;;;10.23;4.18;;;4.60;67.40;;;-0.79;100.00;93852.31;4946322;28;20062;-49
2023/11/30 06:25:52;;;;;;;8.13;4.07;;;4.60;67.30;;;-0.79;100.00;93843.69;4955819;28;20576;-47
2023/11/30 06:28:19;;;;;;;5.35;3.83;;;4.60;67.40;;;-0.89;100.00;93846.91;4954451;28;20031;-50
2023/11/30 06:30:46;;;;;;;6.45;4.40;;;4.50;67.40;;;-0.84;100.00;93844.41;4953570;28;20484;-49
2023/11/30 06:33:13;;;;;;;7.43;3.70;;;4.50;67.50;;;-0.82;100.00;93844.16;4974230;28;20103;-48
2023/11/30 06:35:39;;;;;;;4.80;3.72;;;4.50;67.60;;;-0.86;100.00;93846.44;4957999;28;20046;-48
2023/11/30 06:38:05;;;;;;;6.18;4.45;;;4.50;67.60;;;-0.82;100.00;93846.78;4964321;28;20338;-49
2023/11/30 06:40:30;;;;;;;5.65;4.40;;;4.50;67.80;;;-0.86;100.00;93846.44;4952646;28;20381;-48
2023/11/30 06:42:56;;;;;;;7.10;4.93;;;4.50;67.80;;;-0.91;100.00;93845.56;4962577;28;20397;-52
2023/11/30 06:45:22;;;;;;;9.55;4.57;;;4.50;67.80;;;-0.95;100.00;93830.34;4948901;28;20031;-47
2023/11/30 06:47:48;;;;;;;12.90;4.88;;;4.50;67.80;;;-0.96;100.00;93841.06;4944606;28;20042;-50
2023/11/30 06:50:14;;;;;;;8.05;5.38;;;4.50;67.80;;;-1.07;100.00;93841.91;4959809;28;20027;-47
2023/11/30 06:52:39;;;;;;;9.63;5.90;;;4.50;67.80;;;-0.99;100.00;93834.47;4959648;28;20103;-47
2023/11/30 06:55:06;;;;;;;8.23;5.55;;;4.50;67.90;;;-1.00;100.00;93832.09;4958038;28;20109;-49
2023/11/30 06:57:32;;;;;;;9.50;5.93;;;4.40;67.90;;;-1.00;100.00;93840.75;4947167;28;20421;-47
2023/11/30 06:59:57;;;;;;;10.80;6.93;;;4.40;67.90;;;-0.93;100.00;93830.91;4949340;28;20030;-48
2023/11/30 07:02:23;;;;;;;12.27;7.55;;;4.40;67.90;;;-0.87;100.00;93844.88;4961282;28;20109;-48
2023/11/30 07:04:49;;;;;;;11.50;6.85;;;4.40;68.00;;;-0.83;100.00;93843.38;4944522;28;20015;-49
2023/11/30 07:07:15;;;;;;;9.00;6.35;;;4.40;68.00;;;-0.81;100.00;93837.91;4962826;28;20033;-48
2023/11/30 07:09:41;;;;;;;11.60;6.88;;;4.50;68.20;;;-0.79;100.00;93841.84;4953407;28;20449;-51
2023/11/30 07:12:08;;;;;;;13.63;7.15;;;4.50;68.10;;;-0.74;100.00;93835.94;4955051;28;20100;-49
2023/11/30 07:14:33;;;;;;;10.05;6.68;;;4.60;68.20;;;-0.70;100.00;93842.28;4950377;28;20046;-47
2023/11/30 07:17:00;;;;;;;12.23;6.63;;;4.60;68.20;;;-0.70;100.00;93837.81;4952803;28;20113;-52
2023/11/30 07:19:26;;;;;;;9.00;6.22;;;4.60;68.20;;;-0.65;100.00;93831.91;4951235;28;20070;-48
2023/11/30 07:21:51;;;;;;;8.30;5.72;;;4.60;68.10;;;-0.63;100.00;93829.03;4943718;28;20497;-53
2023/11/30 07:24:17;;;;;;;7.18;4.78;;;4.70;68.10;;;-0.63;100.00;93839.50;4960607;28;20023;-51
2023/11/30 07:26:48;;;;;;;8.98;5.60;;;4.70;68.10;;;-0.62;100.00;93836.66;4974927;28;20038;-55
2023/11/30 07:29:15;;;;;;;8.60;5.00;;;4.80;68.10;;;-0.56;100.00;93842.78;4949017;28;20015;-52
2023/11/30 07:31:45;;;;;;;6.35;4.43;;;4.80;68.10;;;-0.49;100.00;93835.53;4956416;28;20034;-51
2023/11/30 07:34:11;;;;;;;7.53;4.60;;;4.90;68.10;;;-0.43;100.00;93837.22;4944899;28;20101;-53
2023/11/30 07:36:37;;;;;;;6.40;4.22;;;4.90;68.00;;;-0.39;100.00;93827.84;4985021;28;20022;-53
2023/11/30 07:39:03;;;;;;;7.93;4.82;;;5.00;68.00;;;-0.40;100.00;93836.75;4974813;28;20019;-53
2023/11/30 07:41:29;;;;;;;10.05;4.93;;;5.00;67.90;;;-0.40;100.00;93833.34;4961035;28;20091;-53
2023/11/30 07:43:55;;;;;;;7.85;4.60;;;5.00;67.90;;;-0.45;100.00;93831.41;4951240;28;20115;-54
2023/11/30 07:46:20;;;;;;;6.45;4.43;;;5.10;67.90;;;-0.44;100.00;93834.81;4952905;28;20536;-55
2023/11/30 07:48:46;;;;;;;8.88;4.60;;;5.10;67.80;;;-0.40;100.00;93836.75;4951733;28;20568;-56
2023/11/30 07:51:12;;;;;;;10.93;4.78;;;5.10;67.80;;;-0.42;100.00;93841.41;4954690;28;20080;-56
2023/11/30 07:53:38;;;;;;;9.40;5.00;;;5.10;67.80;;;-0.43;100.00;93836.41;4958591;28;20037;-57
2023/11/30 07:56:05;;;;;;;8.25;4.75;;;5.10;67.70;;;-0.38;100.00;93846.94;4962948;28;20062;-54
2023/11/30 07:58:31;;;;;;;5.60;4.60;;;5.10;67.70;;;-0.38;100.00;93847.72;4949387;28;20018;-58
2023/11/30 08:00:57;;;;;;;6.82;5.03;;;5.20;67.70;;;-0.41;100.00;93852.66;4959188;28;20402;-54
2023/11/30 08:03:23;;;;;;;6.15;4.45;;;5.20;67.80;;;-0.37;100.00;93851.97;4963768;28;20106;-52
2023/11/30 08:05:48;;;;;;;6.13;4.63;;;5.20;67.70;;;-0.32;100.00;93859.06;4952616;28;20466;-55
2023/11/30 08:08:14;;;;;;;6.10;4.53;;;5.30;67.70;;;-0.36;100.00;93853.53;4961134;28;20029;-53
2023/11/30 08:10:40;;;;;;;6.63;4.60;;;5.30;67.60;;;-0.41;100.00;93861.28;4974470;28;20019;-53
2023/11/30 08:13:06;;;;;;;14.15;4.53;;;5.30;67.50;;;-0.35;100.00;93860.34;4956360;28;20038;-56
2023/11/30 08:15:33;;;;;;;5.68;4.10;;;5.30;67.50;;;-0.31;100.00;93855.44;4963950;28;20030;-55
2023/11/30 08:17:59;;;;;;;7.30;4.80;;;5.30;68.30;;;-0.30;100.00;93863.03;4976567;28;20030;-53
2023/11/30 08:20:25;;;;;;;5.78;4.78;;;5.40;67.60;;;-0.33;100.00;93860.91;4981171;28;20027;-53
2023/11/30 08:22:51;;;;;;;6.32;4.45;;;5.40;67.50;;;-0.35;100.00;93852.50;4946406;28;20038;-53
2023/11/30 08:25:17;;;;;;;6.63;4.95;;;5.40;67.40;;;-0.41;100.00;93850.81;4958603;28;20069;-53
2023/11/30 08:27:43;;;;;;;4.30;3.90;;;5.40;67.30;;;-0.43;100.00;93844.28;4951381;28;20034;-53
2023/11/30 08:30:10;;;;;;;5.95;4.50;;;5.40;67.30;;;-0.42;100.00;93845.84;4975928;28;20033;-53
2023/11/30 08:32:39;;;;;;;5.65;4.30;;;5.40;67.30;;;-0.33;100.00;93850.44;4952596;28;20065;-57
2023/11/30 08:35:06;;;;;;;6.78;4.63;;;5.50;67.30;;;-0.27;100.00;93841.63;4956917;28;20037;-53
2023/11/30 08:37:32;;;;;;;6.00;4.28;;;5.50;67.30;;;-0.21;100.00;93841.72;4949188;28;20037;-56
2023/11/30 08:39:59;;;;;;;5.70;4.30;;;5.50;67.30;;;-0.29;100.00;93843.69;4973420;28;20018;-57
2023/11/30 08:42:26;;;;;;;4.65;3.85;;;5.60;67.20;;;-0.33;100.00;93837.34;4960459;28;20047;-56
2023/11/30 08:44:52;;;;;;;6.18;4.65;;;5.60;67.10;;;-0.44;100.00;93822.53;4953863;28;20022;-58
2023/11/30 08:47:18;;;;;;;6.05;4.10;;;5.60;67.00;;;-0.38;100.00;93815.56;4951369;28;20062;-58
2023/11/30 08:49:44;;;;;;;5.38;3.90;;;5.70;67.00;;;-0.28;100.00;93818.34;4950392;28;20046;-58
2023/11/30 08:52:09;;;;;;;6.57;4.53;;;5.80;66.90;;;-0.22;100.00;93819.97;4973179;28;20053;-57
2023/11/30 08:54:35;;;;;;;7.07;4.57;;;5.80;66.90;;;-0.20;100.00;93817.13;4982483;28;20052;-57
2023/11/30 08:57:01;;;;;;;5.38;4.10;;;5.80;66.80;;;-0.10;100.00;93822.50;4948970;28;20027;-55
2023/11/30 08:59:27;;;;;;;5.57;3.42;;;5.90;66.80;;;-0.09;100.00;93824.88;4958964;28;20086;-57
2023/11/30 09:01:54;;;;;;;5.57;4.18;;;5.90;66.70;;;-0.07;100.00;93833.28;4957728;28;20056;-58
2023/11/30 09:04:19;;;;;;;4.80;3.60;;;6.00;66.70;;;-0.05;100.00;93827.81;4956608;28;20113;-57
2023/11/30 09:06:45;;;;;;;6.68;3.90;;;6.00;66.60;;;-0.08;100.00;93821.22;4953277;28;20101;-57
2023/11/30 09:09:11;;;;;;;4.78;3.78;;;6.00;66.50;;;0.01;100.00;93823.44;4957090;28;20018;-53
2023/11/30 09:11:37;;;;;;;5.18;3.80;;;6.10;66.50;;;0.05;100.00;93832.38;4956112;28;20040;-55
2023/11/30 09:14:03;;;;;;;5.05;3.58;;;6.10;66.40;;;0.08;100.00;93824.06;4955483;28;20241;-58
2023/11/30 09:16:29;;;;;;;4.72;3.63;;;6.10;66.50;;;0.13;100.00;93827.53;4956915;28;20030;-57
2023/11/30 09:18:54;;;;;;;16.00;4.22;;;6.20;66.50;;;0.12;100.00;93822.53;4952620;28;20433;-56
2023/11/30 09:21:21;;;;;;;4.90;3.65;;;6.20;66.40;;;0.19;100.00;93836.25;4957563;28;20035;-57
2023/11/30 09:23:48;;;;;;;37.78;4.50;;;6.20;66.40;;;0.21;100.00;93840.19;4947875;28;20029;-55
2023/11/30 09:26:13;;;;;;;4.63;3.67;;;6.20;66.30;;;0.24;100.00;93844.16;4954577;28;20028;-57
2023/11/30 09:28:39;;;;;;;4.60;3.72;;;6.20;66.30;;;0.27;100.00;93829.78;4958340;28;20543;-53
2023/11/30 09:31:07;;;;;;;5.15;3.80;;;6.20;66.30;;;0.12;100.00;93830.38;4949592;28;20121;-55
2023/11/30 09:33:32;;;;;;;4.60;3.45;;;6.20;66.20;;;0.15;100.00;93835.13;4959644;28;20669;-51
2023/11/30 09:35:59;;;;;;;5.95;4.00;;;6.20;66.10;;;0.25;100.00;93834.47;4951973;28;20027;-58
2023/11/30 09:38:25;;;;;;;5.88;4.03;;;6.20;66.10;;;0.18;100.00;93832.81;4957431;28;20126;-57
2023/11/30 09:40:55;;;;;;;5.05;3.92;;;6.20;66.10;;;0.27;100.00;93827.97;4957383;28;20026;-56
2023/11/30 09:43:21;;;;;;;5.72;4.28;;;6.30;66.20;;;0.22;100.00;93820.84;4959101;28;20022;-57
2023/11/30 09:45:49;;;;;;;6.32;4.82;;;6.30;66.20;;;0.20;100.00;93815.06;4958447;28;20532;-54
2023/11/30 09:48:16;;;;;;;7.57;4.38;;;6.30;66.10;;;0.15;100.00;93807.13;4953527;28;20125;-56
2023/11/30 09:50:42;;;;;;;6.68;4.30;;;6.30;66.10;;;0.21;100.00;93802.75;4948926;28;20033;-55
2023/11/30 09:53:10;;;;;;;7.13;4.72;;;6.30;66.10;;;0.12;100.00;93799.75;4968149;28;20065;-56
2023/11/30 09:55:37;;;;;;;7.40;4.57;;;6.40;66.10;;;0.11;100.00;93800.00;4952312;28;20028;-56
2023/11/30 09:58:06;;;;;;;7.45;4.70;;;6.40;66.00;;;0.14;100.00;93799.53;4968326;28;20054;-58
2023/11/30 10:00:32;;;;;;;6.95;4.43;;;6.40;65.90;;;0.17;100.00;93809.50;4961439;28;20105;-59
2023/11/30 10:02:59;;;;;;;5.38;3.90;;;6.40;65.90;;;0.21;100.00;93794.88;4961957;28;20041;-56
2023/11/30 10:05:28;;;;;;;5.88;4.40;;;6.40;65.90;;;0.26;100.00;93799.41;4949952;28;20053;-55
2023/11/30 10:07:58;;;;;;;5.28;4.05;;;6.40;65.90;;;0.23;100.00;93790.22;4950878;28;20133;-56
2023/11/30 10:10:25;;;;;;;7.60;4.85;;;6.40;65.90;;;0.31;100.00;93786.34;4951808;28;20026;-56
2023/11/30 10:12:53;;;;;;;6.75;4.57;;;6.50;66.00;;;0.35;100.00;93790.88;4952744;28;20126;-53
2023/11/30 10:15:21;;;;;;;6.78;4.70;;;6.50;65.90;;;0.24;100.00;93781.31;4961568;28;20037;-56